Time;durP1;ratioP1;P1;durP2;ratioP2;P2;SDS_P1;SDS_P2;PMS_P1;PMS_P2;Temp;Humidity;BMP_temperature;BMP_pressure;BME280_temperature;BME280_humidity;BME280_pressure;Samples;Min_cycle;Max_cycle;Signal;HPM_P1;HPM_P2
2023/07/17 00:01:06;;;;;;;8.10;2.30;;;;;;;16.54;77.51;99902.91;5044888;28;20343;-65
2023/07/17 00:03:32;;;;;;;7.47;1.20;;;;;;;16.57;77.55;99900.16;5044798;28;20425;-65
2023/07/17 00:05:58;;;;;;;13.35;2.00;;;;;;;16.57;77.09;99897.53;5046267;28;20033;-64
2023/07/17 00:08:23;;;;;;;7.47;2.00;;;;;;;16.57;77.48;99894.06;5048473;28;20075;-65
2023/07/17 00:10:49;;;;;;;4.05;1.08;;;;;;;16.59;77.76;99903.59;5049045;28;20025;-65
2023/07/17 00:13:14;;;;;;;6.07;1.60;;;;;;;16.56;77.58;99908.94;5048735;28;20045;-65
2023/07/17 00:15:40;;;;;;;8.50;2.47;;;;;;;16.55;77.64;99904.59;5048889;28;20022;-65
2023/07/17 00:18:05;;;;;;;14.98;4.32;;;;;;;16.51;77.78;99897.81;5048842;28;20493;-65
2023/07/17 00:20:31;;;;;;;5.00;1.52;;;;;;;16.58;77.31;99901.84;5048825;28;20107;-66
2023/07/17 00:22:56;;;;;;;10.55;3.58;;;;;;;16.51;77.26;99915.28;5046948;28;20021;-64
2023/07/17 00:25:22;;;;;;;12.70;2.08;;;;;;;16.52;77.24;99911.75;5048260;28;20077;-65
2023/07/17 00:27:47;;;;;;;7.18;2.55;;;;;;;16.50;77.66;99917.06;5048580;28;20037;-64
2023/07/17 00:30:13;;;;;;;13.57;2.60;;;;;;;16.46;77.25;99912.84;5048584;28;20021;-65
2023/07/17 00:32:38;;;;;;;4.18;1.40;;;;;;;16.48;77.33;99913.66;5048425;28;20024;-65
2023/07/17 00:35:04;;;;;;;11.20;2.15;;;;;;;16.49;77.35;99917.97;5048526;28;20021;-64
2023/07/17 00:37:30;;;;;;;6.40;1.48;;;;;;;16.49;77.57;99907.47;5048265;28;20032;-64
2023/07/17 00:39:55;;;;;;;8.32;1.52;;;;;;;16.49;77.41;99907.47;5048360;28;20029;-66
2023/07/17 00:42:20;;;;;;;8.93;2.63;;;;;;;16.47;77.40;99912.78;5048243;28;20018;-64
2023/07/17 00:44:46;;;;;;;5.75;2.42;;;;;;;16.45;77.75;99908.53;5048257;28;20059;-65
2023/07/17 00:47:12;;;;;;;3.83;1.85;;;;;;;16.43;77.79;99912.97;5047946;28;20104;-65
2023/07/17 00:49:38;;;;;;;6.28;2.03;;;;;;;16.31;77.60;99899.47;5048267;28;20113;-64
2023/07/17 00:52:05;;;;;;;9.10;2.08;;;;;;;16.37;77.56;99910.59;5029965;28;20401;-65
2023/07/17 00:54:31;;;;;;;10.25;1.70;;;;;;;16.29;77.82;99910.91;5048064;28;20033;-65
2023/07/17 00:56:59;;;;;;;8.35;1.83;;;;;;;16.30;77.79;99912.63;5047949;28;20105;-65
2023/07/17 00:59:26;;;;;;;3.47;1.30;;;;;;;16.27;78.01;99913.59;5048026;28;20385;-65
2023/07/17 01:01:51;;;;;;;7.07;1.70;;;;;;;16.24;78.18;99911.13;5048121;28;20026;-65
2023/07/17 01:04:17;;;;;;;12.98;3.40;;;;;;;16.23;78.10;99917.25;5047789;28;20040;-65
2023/07/17 01:06:42;;;;;;;9.75;2.60;;;;;;;16.23;78.46;99922.47;5046488;28;20018;-64
2023/07/17 01:09:10;;;;;;;8.23;1.88;;;;;;;16.17;78.98;99920.09;5047659;28;20116;-65
2023/07/17 01:11:36;;;;;;;3.75;1.85;;;;;;;16.13;78.74;99918.53;5030051;28;20378;-64
2023/07/17 01:14:01;;;;;;;11.95;3.20;;;;;;;16.07;79.24;99920.47;5047719;28;20485;-65
2023/07/17 01:16:27;;;;;;;9.10;1.83;;;;;;;16.06;79.88;99934.50;5047541;28;20458;-64
2023/07/17 01:18:53;;;;;;;6.78;2.28;;;;;;;16.03;79.81;99925.91;5047706;28;20029;-65
2023/07/17 01:21:24;;;;;;;10.63;2.33;;;;;;;16.01;80.65;99923.34;5047806;28;20051;-65
2023/07/17 01:23:51;;;;;;;3.72;1.00;;;;;;;15.95;80.62;99908.69;5047261;28;20046;-65
2023/07/17 01:26:18;;;;;;;3.63;1.35;;;;;;;16.01;80.94;99918.09;5047559;28;20030;-65
2023/07/17 01:28:44;;;;;;;4.43;1.75;;;;;;;15.99;81.02;99914.69;5047457;28;20025;-66
2023/07/17 01:31:10;;;;;;;4.80;1.75;;;;;;;15.98;80.96;99910.38;5047437;28;20032;-65
2023/07/17 01:33:36;;;;;;;7.82;2.10;;;;;;;15.97;81.04;99912.13;5047498;28;20053;-65
2023/07/17 01:36:03;;;;;;;10.70;2.28;;;;;;;16.02;81.22;99906.75;5047442;28;20013;-64
2023/07/17 01:38:29;;;;;;;10.07;1.90;;;;;;;16.07;80.87;99907.38;5029315;28;20096;-66
2023/07/17 01:40:55;;;;;;;10.68;2.30;;;;;;;16.07;81.21;99911.78;5047534;28;20028;-65
2023/07/17 01:43:20;;;;;;;6.63;1.77;;;;;;;16.04;80.92;99912.75;5047063;28;20037;-65
2023/07/17 01:45:46;;;;;;;7.43;2.33;;;;;;;16.03;80.95;99915.41;5047004;28;20035;-66
2023/07/17 01:48:13;;;;;;;17.40;2.30;;;;;;;15.97;80.94;99912.13;5046797;28;20036;-65
2023/07/17 01:50:39;;;;;;;4.60;1.25;;;;;;;15.96;81.26;99925.25;5047202;28;20033;-64
2023/07/17 01:53:04;;;;;;;13.18;2.20;;;;;;;15.93;81.03;99917.50;5046677;28;20087;-64
2023/07/17 01:55:29;;;;;;;6.55;1.80;;;;;;;15.92;81.21;99924.53;5047140;28;20049;-64
2023/07/17 01:57:58;;;;;;;4.03;1.45;;;;;;;15.94;81.23;99922.69;5029086;28;20426;-65
2023/07/17 02:00:23;;;;;;;7.93;2.28;;;;;;;15.97;81.11;99922.59;5046797;28;20025;-65
2023/07/17 02:02:49;;;;;;;3.45;0.90;;;;;;;15.94;81.30;99906.16;5046642;28;20323;-65
2023/07/17 02:05:15;;;;;;;7.53;1.98;;;;;;;16.03;81.28;99921.53;5029126;28;20117;-65
2023/07/17 02:07:40;;;;;;;7.78;1.83;;;;;;;16.02;81.50;99917.22;5046563;28;20025;-66
2023/07/17 02:10:06;;;;;;;10.27;1.77;;;;;;;15.98;82.00;99918.22;5046714;28;20061;-64
2023/07/17 02:12:33;;;;;;;2.72;1.30;;;;;;;16.02;82.08;99913.72;5046663;28;20051;-65
2023/07/17 02:14:58;;;;;;;5.82;1.88;;;;;;;15.99;82.07;99917.28;5046759;28;20053;-65
2023/07/17 02:17:24;;;;;;;1.88;1.17;;;;;;;16.00;82.04;99915.53;5046531;28;20075;-65
2023/07/17 02:19:49;;;;;;;6.75;1.40;;;;;;;15.98;82.63;99919.09;5045381;28;20025;-65
2023/07/17 02:22:14;;;;;;;11.45;1.88;;;;;;;15.99;82.52;99917.28;5046377;28;20081;-65
2023/07/17 02:24:40;;;;;;;13.35;2.13;;;;;;;16.00;82.77;99905.94;5044848;28;20049;-64
2023/07/17 02:27:05;;;;;;;10.40;1.50;;;;;;;15.95;82.76;99897.38;5046401;28;20029;-65
2023/07/17 02:29:31;;;;;;;7.25;3.33;;;;;;;16.05;82.55;99914.47;5045829;28;20036;-65
2023/07/17 02:31:56;;;;;;;10.73;1.95;;;;;;;16.06;82.55;99910.06;5046365;28;20052;-65
2023/07/17 02:34:22;;;;;;;9.38;2.53;;;;;;;16.07;82.49;99911.78;5046136;28;20017;-65
2023/07/17 02:36:47;;;;;;;6.10;2.45;;;;;;;16.03;82.76;99920.66;5046415;28;20080;-65
2023/07/17 02:39:13;;;;;;;14.65;1.88;;;;;;;16.04;82.79;99917.16;5045929;28;20022;-65
2023/07/17 02:41:38;;;;;;;9.80;1.92;;;;;;;16.04;82.46;99909.28;5046148;28;20095;-66
2023/07/17 02:44:03;;;;;;;13.32;1.70;;;;;;;16.07;82.28;99923.09;5045963;28;20081;-64
2023/07/17 02:46:29;;;;;;;10.73;2.58;;;;;;;16.08;82.46;99916.97;5045919;28;20032;-65
2023/07/17 02:48:54;;;;;;;24.95;3.10;;;;;;;16.09;82.35;99913.41;5046124;28;20025;-65
2023/07/17 02:51:19;;;;;;;9.93;1.52;;;;;;;16.13;81.95;99921.16;5045943;28;20389;-65
2023/07/17 02:53:45;;;;;;;5.68;1.85;;;;;;;16.13;81.85;99918.53;5045673;28;20025;-65
2023/07/17 02:56:10;;;;;;;2.90;1.25;;;;;;;16.15;81.83;99920.16;5045953;28;20470;-66
2023/07/17 02:58:48;;;;;;;14.18;1.95;;;;;;;16.23;81.51;99920.72;5045809;28;20022;-66
2023/07/17 03:01:14;;;;;;;3.03;1.42;;;;;;;16.27;81.76;99923.22;5028078;28;20025;-67
2023/07/17 03:03:40;;;;;;;4.38;1.08;;;;;;;16.26;81.59;99903.19;5045623;28;20174;-65
2023/07/17 03:06:05;;;;;;;7.47;2.63;;;;;;;16.29;81.96;99911.78;5045714;28;20081;-65
2023/07/17 03:08:31;;;;;;;15.30;2.08;;;;;;;16.31;82.10;99919.59;5045463;28;20021;-66
2023/07/17 03:10:56;;;;;;;4.43;1.50;;;;;;;16.37;81.79;99915.84;5045617;28;20029;-66
2023/07/17 03:13:21;;;;;;;5.47;1.77;;;;;;;16.41;81.87;99912.19;5044210;28;20036;-65
2023/07/17 03:15:50;;;;;;;7.65;2.70;;;;;;;16.43;81.67;99905.13;5045456;28;20032;-65
2023/07/17 03:18:15;;;;;;;7.00;2.50;;;;;;;16.46;81.79;99905.84;5045443;28;20029;-66
2023/07/17 03:20:44;;;;;;;15.32;2.85;;;;;;;16.48;81.97;99900.56;5045387;28;20017;-65
2023/07/17 03:23:10;;;;;;;8.60;2.17;;;;;;;16.48;82.27;99895.31;5045230;28;20028;-66
2023/07/17 03:25:36;;;;;;;12.27;2.78;;;;;;;16.51;81.68;99905.66;5045297;28;20080;-65
2023/07/17 03:28:02;;;;;;;3.60;1.60;;;;;;;16.48;81.92;99896.13;5045259;28;20029;-66
2023/07/17 03:30:27;;;;;;;14.77;2.50;;;;;;;16.55;81.92;99898.53;5044215;28;20041;-65
2023/07/17 03:32:53;;;;;;;4.35;2.45;;;;;;;16.52;81.62;99902.13;5045164;28;20033;-65
2023/07/17 03:35:18;;;;;;;16.33;2.83;;;;;;;16.52;81.42;99901.28;5045269;28;20108;-66
2023/07/17 03:37:44;;;;;;;5.07;2.13;;;;;;;16.53;81.26;99903.84;5043557;28;20120;-67
2023/07/17 03:40:12;;;;;;;10.35;1.85;;;;;;;16.50;81.43;99903.97;5044572;28;20017;-65
2023/07/17 03:42:37;;;;;;;9.57;2.35;;;;;;;16.48;81.82;99903.16;5045160;28;20112;-65
2023/07/17 03:45:04;;;;;;;18.23;2.30;;;;;;;16.50;81.65;99901.34;5045025;28;20052;-64
2023/07/17 03:47:30;;;;;;;9.55;1.70;;;;;;;16.48;81.80;99918.88;5027320;28;20484;-65
2023/07/17 03:49:56;;;;;;;8.32;2.72;;;;;;;16.48;82.04;99909.25;5045258;28;20021;-65
2023/07/17 03:52:21;;;;;;;6.68;2.10;;;;;;;16.49;81.89;99910.09;5044895;28;20080;-64
2023/07/17 03:54:47;;;;;;;4.25;2.22;;;;;;;16.45;82.08;99912.00;5044993;28;20025;-64
2023/07/17 03:57:12;;;;;;;7.20;1.58;;;;;;;16.49;82.50;99915.34;5044834;28;20037;-64
2023/07/17 03:59:50;;;;;;;5.13;1.85;;;;;;;16.47;82.65;99919.78;5044917;28;20048;-64
2023/07/17 04:02:15;;;;;;;9.63;2.50;;;;;;;16.51;82.61;99918.75;5044708;28;20086;-64
2023/07/17 04:04:40;;;;;;;7.93;1.88;;;;;;;16.46;82.50;99907.59;5044968;28;20021;-65
2023/07/17 04:07:06;;;;;;;12.10;2.35;;;;;;;16.47;82.53;99914.53;5044721;28;20485;-64
2023/07/17 04:09:31;;;;;;;8.02;2.47;;;;;;;16.50;82.47;99922.31;5044763;28;20036;-65
2023/07/17 04:11:57;;;;;;;5.70;2.97;;;;;;;16.54;82.17;99917.78;5044829;28;20037;-64
2023/07/17 04:14:22;;;;;;;4.63;2.17;;;;;;;16.50;82.33;99913.59;5044805;28;20037;-64
2023/07/17 04:16:48;;;;;;;8.07;2.20;;;;;;;16.51;82.57;99910.91;5043445;28;20382;-64
2023/07/17 04:19:13;;;;;;;19.52;2.67;;;;;;;16.47;82.52;99909.31;5044778;28;20359;-64
2023/07/17 04:21:38;;;;;;;10.20;2.28;;;;;;;16.47;83.00;99912.78;5043338;28;20116;-66
2023/07/17 04:24:04;;;;;;;12.93;2.20;;;;;;;16.50;82.57;99909.19;5044412;28;20096;-65
2023/07/17 04:26:29;;;;;;;6.35;1.35;;;;;;;16.50;83.14;99888.25;5044586;28;20025;-65
2023/07/17 04:28:55;;;;;;;11.90;1.52;;;;;;;16.51;83.07;99907.41;5044519;28;20026;-65
2023/07/17 04:31:20;;;;;;;10.40;2.03;;;;;;;16.51;83.28;99903.03;5043419;28;20021;-66
2023/07/17 04:33:45;;;;;;;11.75;2.58;;;;;;;16.51;83.46;99904.78;5044510;28;20021;-64
2023/07/17 04:36:11;;;;;;;10.90;2.25;;;;;;;16.54;83.63;99918.63;5044573;28;20018;-65
2023/07/17 04:38:36;;;;;;;10.02;2.38;;;;;;;16.57;83.43;99918.50;5044381;28;20490;-65
2023/07/17 04:41:03;;;;;;;16.13;3.00;;;;;;;16.56;83.05;99924.66;5044626;28;20025;-65
2023/07/17 04:43:28;;;;;;;7.50;1.95;;;;;;;16.57;83.34;99921.13;5044643;28;20033;-66
2023/07/17 04:45:54;;;;;;;7.75;1.65;;;;;;;16.56;83.44;99922.06;5044293;28;20021;-66
2023/07/17 04:48:19;;;;;;;5.93;2.05;;;;;;;16.51;83.70;99910.91;5044409;28;20096;-66
2023/07/17 04:50:45;;;;;;;9.20;2.55;;;;;;;16.43;84.05;99918.22;5044336;28;20244;-65
2023/07/17 04:53:11;;;;;;;7.18;1.75;;;;;;;16.40;84.66;99920.97;5047507;28;20025;-66
2023/07/17 04:55:36;;;;;;;6.35;2.13;;;;;;;16.28;85.38;99920.53;5048256;28;20512;-66
2023/07/17 04:58:01;;;;;;;11.95;2.90;;;;;;;16.21;86.40;99924.31;5046702;28;20025;-67
2023/07/17 05:00:27;;;;;;;11.52;2.15;;;;;;;16.17;86.73;99925.34;5048237;28;20109;-65
2023/07/17 05:02:52;;;;;;;11.70;3.47;;;;;;;16.17;87.01;99923.59;5048026;28;20017;-64
2023/07/17 05:05:18;;;;;;;18.40;2.97;;;;;;;16.16;87.22;99926.28;5047929;28;20074;-65
2023/07/17 05:07:43;;;;;;;14.10;2.40;;;;;;;16.22;87.56;99915.53;5046617;28;20056;-65
2023/07/17 05:10:10;;;;;;;7.07;1.77;;;;;;;16.25;87.46;99914.56;5048303;28;20060;-65
2023/07/17 05:12:36;;;;;;;3.72;2.35;;;;;;;16.24;87.49;99918.97;5047771;28;20036;-69
2023/07/17 05:15:01;;;;;;;3.10;1.58;;;;;;;16.28;87.73;99909.22;5047803;28;20065;-65
2023/07/17 05:17:29;;;;;;;5.10;1.77;;;;;;;16.30;87.98;99897.75;5047664;28;20018;-65
2023/07/17 05:19:54;;;;;;;8.73;2.97;;;;;;;16.31;87.87;99915.19;5047767;28;20025;-70
2023/07/17 05:22:20;;;;;;;18.23;3.75;;;;;;;16.34;87.32;99904.56;5047586;28;20022;-68
2023/07/17 05:24:46;;;;;;;7.13;1.90;;;;;;;16.39;87.55;99907.00;5046986;28;20049;-66
2023/07/17 05:27:12;;;;;;;10.45;2.55;;;;;;;16.43;87.04;99902.50;5047439;28;20025;-65
2023/07/17 05:29:38;;;;;;;10.32;2.08;;;;;;;16.46;86.99;99902.38;5047266;28;20025;-65
2023/07/17 05:32:04;;;;;;;13.93;3.08;;;;;;;16.54;86.71;99910.78;5047307;28;20385;-65
2023/07/17 05:34:29;;;;;;;3.78;1.45;;;;;;;16.62;86.28;99906.97;5047247;28;20033;-65
2023/07/17 05:36:55;;;;;;;12.38;3.08;;;;;;;16.64;85.74;99910.38;5047115;28;20028;-65
2023/07/17 05:39:20;;;;;;;9.43;2.10;;;;;;;16.70;85.43;99912.75;5047115;28;20061;-65
2023/07/17 05:41:46;;;;;;;8.00;2.28;;;;;;;16.76;85.04;99919.50;5047149;28;20420;-66
2023/07/17 05:44:12;;;;;;;9.85;1.85;;;;;;;16.81;84.79;99923.63;5047140;28;20085;-66
2023/07/17 05:46:37;;;;;;;9.82;2.72;;;;;;;16.93;84.35;99916.16;5045681;28;20513;-64
2023/07/17 05:49:03;;;;;;;10.85;1.95;;;;;;;17.01;83.50;99919.31;5046997;28;20025;-65
2023/07/17 05:51:29;;;;;;;1.30;1.20;;;;;;;17.05;82.17;99917.41;5047111;28;20079;-66
2023/07/17 05:53:55;;;;;;;6.15;1.80;;;;;;;17.08;81.63;99926.03;5045424;28;20029;-66
2023/07/17 05:56:20;;;;;;;19.95;2.30;;;;;;;17.10;81.36;99918.09;5047034;28;20066;-65
2023/07/17 05:58:46;;;;;;;5.43;2.10;;;;;;;17.12;80.82;99915.41;5047034;28;20048;-65
2023/07/17 06:01:11;;;;;;;9.70;1.98;;;;;;;17.05;80.65;99899.91;5046828;28;20096;-70
2023/07/17 06:03:36;;;;;;;9.98;2.10;;;;;;;17.26;80.29;99931.38;5046035;28;20025;-64
2023/07/17 06:06:03;;;;;;;11.40;1.88;;;;;;;17.31;79.99;99921.53;5046681;28;20025;-64
2023/07/17 06:08:28;;;;;;;17.13;2.15;;;;;;;17.43;79.41;99930.63;5046508;28;20025;-65
2023/07/17 06:10:53;;;;;;;13.63;3.22;;;;;;;17.44;78.80;99927.06;5046782;28;20116;-65
2023/07/17 06:13:20;;;;;;;9.60;2.10;;;;;;;17.52;78.98;99928.50;5046729;28;20022;-65
2023/07/17 06:15:46;;;;;;;5.05;2.00;;;;;;;17.52;78.38;99932.00;5046678;28;20021;-64
2023/07/17 06:18:11;;;;;;;10.63;2.13;;;;;;;17.56;78.13;99933.53;5046439;28;20035;-65
2023/07/17 06:20:37;;;;;;;4.20;1.73;;;;;;;17.54;77.99;99932.75;5046448;28;20021;-64
2023/07/17 06:23:02;;;;;;;12.05;2.67;;;;;;;17.49;77.88;99926.88;5044819;28;20017;-64
2023/07/17 06:25:27;;;;;;;4.72;1.80;;;;;;;17.50;77.69;99925.97;5046078;28;20056;-64
2023/07/17 06:27:53;;;;;;;11.98;2.58;;;;;;;17.54;78.32;99924.06;5046297;28;20025;-66
2023/07/17 06:30:18;;;;;;;8.25;1.73;;;;;;;17.64;77.98;99921.84;5046392;28;20048;-63
2023/07/17 06:32:44;;;;;;;10.02;2.00;;;;;;;17.71;77.25;99926.75;5046389;28;20492;-65
2023/07/17 06:35:10;;;;;;;3.58;1.70;;;;;;;17.80;77.04;99925.47;5046232;28;20101;-66
2023/07/17 06:37:36;;;;;;;8.30;1.23;;;;;;;17.77;76.54;99915.09;5044983;28;20017;-65
2023/07/17 06:40:03;;;;;;;18.58;2.90;;;;;;;17.90;76.22;99928.53;5046129;28;20029;-65
2023/07/17 06:42:30;;;;;;;2.13;1.13;;;;;;;17.93;75.68;99922.25;5028470;28;20410;-66
2023/07/17 06:44:55;;;;;;;4.25;1.50;;;;;;;17.89;75.45;99931.22;5046349;28;20040;-65
2023/07/17 06:47:21;;;;;;;9.20;1.60;;;;;;;17.91;75.81;99930.22;5046117;28;20081;-65
2023/07/17 06:49:46;;;;;;;14.98;3.22;;;;;;;18.00;75.46;99933.34;5046123;28;20033;-65
2023/07/17 06:52:12;;;;;;;9.02;2.20;;;;;;;18.02;75.09;99921.00;5045966;28;20094;-65
2023/07/17 06:54:37;;;;;;;7.75;1.70;;;;;;;17.99;74.61;99931.63;5028014;28;20045;-65
2023/07/17 06:57:03;;;;;;;8.00;2.10;;;;;;;17.94;75.16;99927.44;5045990;28;20033;-65
2023/07/17 06:59:28;;;;;;;5.28;1.40;;;;;;;17.91;74.62;99937.22;5046028;28;20470;-65
2023/07/17 07:01:54;;;;;;;11.70;2.25;;;;;;;17.86;74.61;99934.00;5044590;28;20021;-65
2023/07/17 07:04:20;;;;;;;11.35;1.02;;;;;;;17.82;74.62;99931.50;5045393;28;20026;-65
2023/07/17 07:06:45;;;;;;;3.67;0.50;;;;;;;17.76;74.50;99928.31;5045645;28;20033;-65
2023/07/17 07:09:11;;;;;;;8.55;1.20;;;;;;;17.74;74.64;99923.13;5045544;28;20040;-65
2023/07/17 07:11:36;;;;;;;7.82;1.80;;;;;;;17.74;74.70;99949.38;5045867;28;20022;-66
2023/07/17 07:14:01;;;;;;;8.40;2.08;;;;;;;17.73;74.49;99924.06;5027888;28;20021;-66
2023/07/17 07:16:28;;;;;;;3.05;0.98;;;;;;;17.69;74.93;99932.97;5045521;28;20017;-65
2023/07/17 07:18:53;;;;;;;9.50;2.50;;;;;;;17.76;75.54;99942.28;5027869;28;20424;-64
2023/07/17 07:21:19;;;;;;;9.43;2.45;;;;;;;17.82;75.26;99939.38;5027684;28;20109;-65
2023/07/17 07:23:44;;;;;;;7.38;2.67;;;;;;;17.83;75.32;99938.44;5045059;28;20046;-65
2023/07/17 07:26:10;;;;;;;7.95;1.58;;;;;;;17.86;75.31;99934.81;5045418;28;20029;-66
2023/07/17 07:28:35;;;;;;;5.80;2.28;;;;;;;17.87;75.14;99933.91;5045511;28;20028;-65
2023/07/17 07:31:02;;;;;;;9.55;2.70;;;;;;;17.90;75.44;99940.78;5045427;28;20065;-65
2023/07/17 07:33:27;;;;;;;9.02;2.47;;;;;;;17.98;74.88;99940.44;5045245;28;20025;-65
2023/07/17 07:35:53;;;;;;;13.30;2.25;;;;;;;17.94;74.71;99944.97;5045355;28;20017;-64
2023/07/17 07:38:19;;;;;;;10.38;1.83;;;;;;;17.93;75.10;99948.53;5027452;28;20039;-65
2023/07/17 07:40:44;;;;;;;8.32;2.13;;;;;;;18.04;74.85;99940.13;5045420;28;20032;-65
2023/07/17 07:43:09;;;;;;;10.45;2.47;;;;;;;18.15;75.01;99932.63;5027239;28;20025;-65
2023/07/17 07:45:35;;;;;;;19.75;2.72;;;;;;;18.33;74.35;99935.28;5044870;28;20077;-65
2023/07/17 07:48:01;;;;;;;8.95;1.92;;;;;;;18.48;73.90;99938.97;5045343;28;20458;-64
2023/07/17 07:50:26;;;;;;;10.75;2.38;;;;;;;18.62;73.08;99932.16;5045165;28;20033;-65
2023/07/17 07:52:52;;;;;;;5.95;1.30;;;;;;;18.74;72.18;99928.06;5044966;28;20027;-66
2023/07/17 07:55:18;;;;;;;5.57;1.48;;;;;;;18.78;71.46;99932.25;5043761;28;20021;-65
2023/07/17 07:57:43;;;;;;;23.55;2.55;;;;;;;18.88;71.13;99940.53;5045023;28;20025;-64
2023/07/17 08:00:09;;;;;;;8.60;1.77;;;;;;;18.81;70.71;99927.69;5043669;28;20029;-64
2023/07/17 08:02:35;;;;;;;4.00;1.45;;;;;;;18.82;70.61;99931.16;5045147;28;20462;-65
2023/07/17 08:05:01;;;;;;;7.53;1.15;;;;;;;18.74;71.02;99930.72;5044871;28;20029;-65
2023/07/17 08:07:26;;;;;;;10.90;1.30;;;;;;;18.78;70.89;99940.13;5043423;28;20449;-65
2023/07/17 08:09:51;;;;;;;4.85;3.20;;;;;;;18.68;70.46;99934.47;5044791;28;20474;-65
2023/07/17 08:12:17;;;;;;;10.57;1.85;;;;;;;18.65;70.96;99937.25;5045043;28;20018;-65
2023/07/17 08:14:42;;;;;;;8.77;2.10;;;;;;;18.64;71.22;99936.41;5045033;28;20028;-65
2023/07/17 08:17:08;;;;;;;8.13;2.45;;;;;;;18.73;71.42;99935.09;5044779;28;20021;-64
2023/07/17 08:19:33;;;;;;;4.28;2.53;;;;;;;18.77;70.92;99931.38;5044757;28;20060;-65
2023/07/17 08:21:58;;;;;;;4.53;1.90;;;;;;;18.70;70.66;99933.50;5044623;28;20021;-65
2023/07/17 08:24:24;;;;;;;10.00;2.55;;;;;;;18.64;70.64;99940.81;5044324;28;20053;-65
2023/07/17 08:26:49;;;;;;;6.90;2.08;;;;;;;18.75;71.09;99924.50;5045716;28;20021;-65
2023/07/17 08:29:15;;;;;;;8.35;1.48;;;;;;;18.95;70.69;99934.00;5048800;28;20112;-65
2023/07/17 08:31:40;;;;;;;11.98;1.67;;;;;;;19.13;69.75;99934.00;5048734;28;20032;-64
2023/07/17 08:34:06;;;;;;;10.52;2.03;;;;;;;19.23;68.70;99940.50;5048585;28;20025;-65
2023/07/17 08:36:32;;;;;;;6.18;1.92;;;;;;;19.19;69.28;99929.28;5048668;28;20026;-65
2023/07/17 08:38:58;;;;;;;7.40;2.33;;;;;;;19.20;68.72;99940.69;5048590;28;20144;-64
2023/07/17 08:41:25;;;;;;;5.82;0.85;;;;;;;19.01;68.46;99931.06;5048579;28;20032;-64
2023/07/17 08:43:51;;;;;;;5.78;2.10;;;;;;;18.92;68.82;99952.56;5048478;28;20021;-65
2023/07/17 08:46:17;;;;;;;7.28;1.80;;;;;;;18.82;69.21;99939.03;5048156;28;20030;-64
2023/07/17 08:48:43;;;;;;;8.90;3.50;;;;;;;18.82;69.99;99928.50;5047989;28;20029;-64
2023/07/17 08:51:10;;;;;;;3.53;0.55;;;;;;;18.93;69.75;99946.41;5048241;28;20071;-65
2023/07/17 08:53:40;;;;;;;8.10;2.38;;;;;;;19.18;69.49;99942.53;5047928;28;20036;-64
2023/07/17 08:56:07;;;;;;;8.23;1.92;;;;;;;19.71;69.38;99931.84;5048218;28;20044;-64
2023/07/17 08:58:32;;;;;;;9.52;2.03;;;;;;;20.57;67.45;99937.66;5048026;28;20079;-64
2023/07/17 09:00:58;;;;;;;6.07;1.92;;;;;;;20.85;64.50;99930.75;5048001;28;20033;-65
2023/07/17 09:03:25;;;;;;;8.40;1.75;;;;;;;20.89;63.97;99919.09;5046522;28;20021;-65
2023/07/17 09:05:50;;;;;;;7.13;1.40;;;;;;;20.71;63.38;99931.56;5048001;28;20021;-65
2023/07/17 09:08:16;;;;;;;7.90;1.77;;;;;;;20.27;63.27;99927.97;5047760;28;20029;-65
2023/07/17 09:10:42;;;;;;;7.35;2.15;;;;;;;19.89;64.28;99945.78;5047976;28;20033;-65
2023/07/17 09:13:08;;;;;;;3.55;1.85;;;;;;;19.65;65.62;99943.56;5047780;28;20089;-65
2023/07/17 09:15:34;;;;;;;15.75;2.28;;;;;;;19.52;65.23;99943.34;5047873;28;20087;-66
2023/07/17 09:18:00;;;;;;;4.05;1.20;;;;;;;19.19;66.16;99928.44;5047760;28;20045;-65
2023/07/17 09:20:26;;;;;;;9.80;1.55;;;;;;;18.96;66.99;99933.09;5047771;28;20025;-65
2023/07/17 09:22:58;;;;;;;3.45;1.48;;;;;;;18.71;67.78;99923.81;5047801;28;20037;-65
2023/07/17 09:25:28;;;;;;;7.95;1.88;;;;;;;18.58;68.98;99915.69;5047407;28;20105;-64
2023/07/17 09:27:54;;;;;;;8.63;1.42;;;;;;;18.57;69.14;99906.97;5047585;28;20025;-64
2023/07/17 09:30:21;;;;;;;4.20;0.93;;;;;;;18.49;67.75;99922.25;5047544;28;20060;-65
2023/07/17 09:32:48;;;;;;;5.40;1.08;;;;;;;18.06;65.71;99928.66;5047378;28;20021;-65
2023/07/17 09:35:14;;;;;;;3.17;1.17;;;;;;;17.53;65.46;99959.94;5047439;28;20051;-68
2023/07/17 09:37:42;;;;;;;2.70;0.77;;;;;;;16.77;66.98;99950.91;5046822;28;20021;-69
2023/07/17 09:40:13;;;;;;;4.50;1.58;;;;;;;15.97;69.82;99959.25;5045488;28;20025;-69
2023/07/17 09:42:44;;;;;;;1.88;0.68;;;;;;;15.39;71.97;99972.69;5047527;28;20117;-70
2023/07/17 09:45:14;;;;;;;9.73;0.88;;;;;;;14.90;73.95;99970.88;5029786;28;20032;-70
2023/07/17 09:47:40;;;;;;;7.43;1.27;;;;;;;14.58;76.42;99989.28;5047337;28;20029;-69
2023/07/17 09:50:07;;;;;;;5.53;1.05;;;;;;;14.26;78.67;100002.44;5047360;28;20030;-69
2023/07/17 09:52:33;;;;;;;8.30;1.13;;;;;;;14.03;80.87;99995.28;5047245;28;20074;-68
2023/07/17 09:55:02;;;;;;;7.30;2.22;;;;;;;13.85;82.64;99972.28;5047151;28;20025;-68
2023/07/17 09:57:33;;;;;;;4.93;1.40;;;;;;;13.82;82.75;99948.91;5047155;28;20025;-67
2023/07/17 10:00:11;;;;;;;9.27;1.42;;;;;;;13.79;83.60;99966.41;5047260;28;20500;-67
2023/07/17 10:02:40;;;;;;;10.52;1.52;;;;;;;13.79;84.27;99962.03;5047073;28;20029;-67
2023/07/17 10:05:06;;;;;;;16.08;1.45;;;;;;;13.76;85.15;99943.88;5046905;28;20032;-67
2023/07/17 10:07:37;;;;;;;4.05;1.42;;;;;;;13.74;85.91;99940.44;5046900;28;20026;-67
2023/07/17 10:10:04;;;;;;;5.47;0.95;;;;;;;13.71;86.93;99945.75;5046907;28;20029;-68
2023/07/17 10:12:30;;;;;;;5.20;1.40;;;;;;;13.70;88.27;99952.75;5029020;28;20032;-67
2023/07/17 10:14:58;;;;;;;5.47;1.30;;;;;;;13.68;90.05;99962.34;5046724;28;20068;-68
2023/07/17 10:17:23;;;;;;;7.07;1.88;;;;;;;13.67;91.09;99972.84;5046665;28;20014;-67
2023/07/17 10:19:49;;;;;;;6.10;2.03;;;;;;;13.67;92.09;99972.84;5046562;28;20032;-67
2023/07/17 10:22:15;;;;;;;10.25;1.58;;;;;;;13.66;92.80;99945.88;5046863;28;20109;-68
2023/07/17 10:24:41;;;;;;;4.03;1.23;;;;;;;13.74;93.54;99950.88;5046322;28;20049;-68
2023/07/17 10:27:07;;;;;;;2.30;0.90;;;;;;;13.77;94.31;99948.19;5046523;28;20032;-69
2023/07/17 10:29:43;;;;;;;7.70;1.48;;;;;;;13.85;95.05;99964.47;5028576;28;20022;-69
2023/07/17 10:32:12;;;;;;;3.00;0.95;;;;;;;13.98;95.58;99966.72;5045089;28;20027;-69
2023/07/17 10:34:51;;;;;;;9.63;1.05;;;;;;;14.16;96.12;99967.06;5046188;28;20028;-68
2023/07/17 10:37:39;;;;;;;10.85;1.38;;;;;;;14.52;96.99;99972.03;5046516;28;20020;-68
2023/07/17 10:40:05;;;;;;;9.93;1.42;;;;;;;14.94;96.27;99957.66;5045129;28;20025;-69
2023/07/17 10:42:32;;;;;;;6.60;1.27;;;;;;;15.21;96.26;99948.91;5046337;28;20025;-69
2023/07/17 10:45:11;;;;;;;3.22;0.95;;;;;;;15.52;95.37;99950.44;5028324;28;20378;-67
2023/07/17 10:47:36;;;;;;;4.22;1.13;;;;;;;15.63;94.38;99959.63;5045932;28;20048;-65
2023/07/17 10:50:05;;;;;;;10.05;1.38;;;;;;;15.63;92.58;99959.63;5045609;28;20470;-67
2023/07/17 10:52:35;;;;;;;4.05;0.93;;;;;;;15.58;91.84;99963.28;5046311;28;20029;-67
2023/07/17 10:55:04;;;;;;;1.48;0.73;;;;;;;15.69;93.28;99969.88;5045616;28;20029;-66
2023/07/17 10:57:31;;;;;;;4.13;0.63;;;;;;;15.77;92.49;99965.22;5045682;28;20075;-66
2023/07/17 10:59:57;;;;;;;2.80;1.15;;;;;;;15.82;92.58;99976.38;5045814;28;20022;-66
2023/07/17 11:02:26;;;;;;;1.13;0.88;;;;;;;15.89;92.35;99965.66;5045697;28;20026;-65
2023/07/17 11:04:55;;;;;;;3.10;0.65;;;;;;;16.05;91.08;99976.44;5045586;28;20021;-65
2023/07/17 11:07:20;;;;;;;6.45;0.68;;;;;;;16.20;90.08;99967.13;5028024;28;20045;-65
2023/07/17 11:09:45;;;;;;;2.83;0.55;;;;;;;16.50;88.82;99979.09;5045252;28;20034;-64
2023/07/17 11:12:11;;;;;;;2.20;1.52;;;;;;;16.67;86.35;99981.00;5044456;28;20033;-63
2023/07/17 11:14:36;;;;;;;11.00;0.70;;;;;;;16.90;86.40;99982.69;5045627;28;20079;-64
2023/07/17 11:17:02;;;;;;;0.73;0.40;;;;;;;17.09;85.92;99981.94;5045741;28;20025;-65
2023/07/17 11:19:28;;;;;;;6.88;1.30;;;;;;;17.34;87.25;99989.63;5044126;28;20035;-65
2023/07/17 11:21:55;;;;;;;4.13;0.65;;;;;;;17.58;87.42;99997.31;5045584;28;20087;-64
2023/07/17 11:24:20;;;;;;;0.90;0.75;;;;;;;17.70;85.90;99998.53;5045229;28;20119;-65
2023/07/17 11:26:46;;;;;;;6.47;0.82;;;;;;;17.72;84.34;99977.47;5045413;28;20442;-64